createdAt,value
2018-06-01T00:00:29.892Z,1018.64
2018-06-01T00:01:29.904Z,1018.65
2018-06-01T00:02:29.879Z,1018.61
2018-06-01T00:03:29.883Z,1018.65
2018-06-01T00:04:29.945Z,1018.68
2018-06-01T00:05:29.892Z,1018.69
2018-06-01T00:06:29.914Z,1018.65
2018-06-01T00:07:29.904Z,1018.63
2018-06-01T00:08:29.883Z,1018.56
2018-06-01T00:09:29.899Z,1018.63
2018-06-01T00:10:29.901Z,1018.63
2018-06-01T00:11:29.923Z,1018.61
2018-06-01T00:12:29.948Z,1018.63
2018-06-01T00:13:29.912Z,1018.6
2018-06-01T00:14:29.918Z,1018.59
2018-06-01T00:15:30.006Z,1018.58
2018-06-01T00:16:29.912Z,1018.68
2018-06-01T00:17:29.955Z,1018.7
2018-06-01T00:18:29.999Z,1018.72
2018-06-01T00:19:29.948Z,1018.76
2018-06-01T00:20:29.897Z,1018.8
2018-06-01T00:21:29.937Z,1018.89
2018-06-01T00:22:30.077Z,1018.91
2018-06-01T00:23:30.009Z,1018.95
2018-06-01T00:24:29.906Z,1018.95
2018-06-01T00:25:29.942Z,1018.97
2018-06-01T00:26:29.910Z,1018.99
2018-06-01T00:27:29.946Z,1019.01
2018-06-01T00:28:29.955Z,1018.99
2018-06-01T00:29:29.923Z,1018.99
2018-06-01T00:30:29.911Z,1019
2018-06-01T00:31:29.924Z,1019.01
2018-06-01T00:32:29.984Z,1019.03
2018-06-01T00:33:29.927Z,1019
2018-06-01T00:34:29.945Z,1019.03
2018-06-01T00:35:29.991Z,1019.08
2018-06-01T00:36:29.947Z,1019.07
2018-06-01T00:37:29.919Z,1019.11
2018-06-01T00:38:29.962Z,1019.08
2018-06-01T00:39:29.995Z,1019.12
2018-06-01T00:40:30.024Z,1019.07
2018-06-01T00:41:29.985Z,1019.03
2018-06-01T00:42:29.946Z,1019.03
2018-06-01T00:43:29.919Z,1019
2018-06-01T00:44:29.913Z,1018.96
2018-06-01T00:45:29.955Z,1018.98
2018-06-01T00:46:30.056Z,1018.97
2018-06-01T00:47:29.925Z,1018.96
2018-06-01T00:48:29.911Z,1018.93
2018-06-01T00:49:30.063Z,1018.91
2018-06-01T00:50:29.926Z,1018.82
2018-06-01T00:51:29.931Z,1018.78
2018-06-01T00:52:29.933Z,1018.77
2018-06-01T00:53:29.919Z,1018.77
2018-06-01T00:54:29.931Z,1018.71
2018-06-01T00:55:29.935Z,1018.66
2018-06-01T00:56:29.934Z,1018.68
2018-06-01T00:57:29.955Z,1018.65
2018-06-01T00:58:29.944Z,1018.64
2018-06-01T00:59:29.970Z,1018.6
2018-06-01T01:00:29.988Z,1018.58
2018-06-01T01:01:29.907Z,1018.55
2018-06-01T01:02:29.939Z,1018.5
2018-06-01T01:03:29.940Z,1018.49
2018-06-01T01:04:29.959Z,1018.41
2018-06-01T01:05:29.932Z,1018.36
2018-06-01T01:06:29.960Z,1018.3
2018-06-01T01:07:29.944Z,1018.25
2018-06-01T01:08:29.925Z,1018.16
2018-06-01T01:09:29.932Z,1018.15
2018-06-01T01:10:29.970Z,1018.1
2018-06-01T01:11:29.953Z,1018.05
2018-06-01T01:12:29.969Z,1018.02
2018-06-01T01:13:30.015Z,1018
2018-06-01T01:14:29.953Z,1017.98
2018-06-01T01:15:29.938Z,1017.95
2018-06-01T01:16:29.929Z,1017.93
2018-06-01T01:17:29.970Z,1017.91
2018-06-01T01:18:29.933Z,1017.92
2018-06-01T01:19:29.941Z,1017.89
2018-06-01T01:20:29.980Z,1017.87
2018-06-01T01:21:30.001Z,1017.86
2018-06-01T01:22:29.960Z,1017.88
2018-06-01T01:23:29.937Z,1017.85
2018-06-01T01:24:30.096Z,1017.85
2018-06-01T01:25:30.043Z,1017.88
2018-06-01T01:26:29.951Z,1017.9
2018-06-01T01:27:29.950Z,1017.87
2018-06-01T01:28:29.962Z,1017.86
2018-06-01T01:29:29.961Z,1017.84
2018-06-01T01:30:29.977Z,1017.87
2018-06-01T01:31:30.075Z,1017.84
2018-06-01T01:32:29.941Z,1017.87
2018-06-01T01:33:29.948Z,1017.88
2018-06-01T01:34:29.989Z,1017.89
2018-06-01T01:35:29.957Z,1017.84
2018-06-01T01:36:29.953Z,1017.82
2018-06-01T01:37:29.964Z,1017.78
2018-06-01T01:38:29.992Z,1017.75
2018-06-01T01:39:29.973Z,1017.7
2018-06-01T01:40:29.961Z,1017.66
2018-06-01T01:41:29.955Z,1017.65
2018-06-01T01:42:30.097Z,1017.58
2018-06-01T01:43:29.947Z,1017.59
2018-06-01T01:44:30.173Z,1017.56
2018-06-01T01:45:29.990Z,1017.5
2018-06-01T01:46:29.977Z,1017.47
2018-06-01T01:47:29.975Z,1017.45
2018-06-01T01:48:29.967Z,1017.45
2018-06-01T01:49:29.954Z,1017.44
2018-06-01T01:50:29.956Z,1017.44
2018-06-01T01:51:29.990Z,1017.5
2018-06-01T01:52:29.969Z,1017.54
2018-06-01T01:53:29.983Z,1017.53
2018-06-01T01:54:29.974Z,1017.6
2018-06-01T01:55:29.992Z,1017.65
2018-06-01T01:56:29.958Z,1017.64
2018-06-01T01:57:30.002Z,1017.69
2018-06-01T01:58:30.013Z,1017.72
2018-06-01T01:59:30.034Z,1017.69
2018-06-01T02:00:29.972Z,1017.72
2018-06-01T02:01:29.974Z,1017.72
2018-06-01T02:02:30.149Z,1017.73
2018-06-01T02:03:29.988Z,1017.73
2018-06-01T02:04:30.051Z,1017.77
2018-06-01T02:05:30.064Z,1017.76
2018-06-01T02:06:29.964Z,1017.75
2018-06-01T02:07:29.961Z,1017.79
2018-06-01T02:08:29.981Z,1017.8
2018-06-01T02:09:30.027Z,1017.87
2018-06-01T02:10:30.350Z,1017.86
2018-06-01T02:11:30.053Z,1017.88
2018-06-01T02:12:30.040Z,1017.9
2018-06-01T02:13:30.022Z,1017.95
2018-06-01T02:14:30.031Z,1017.99
2018-06-01T02:15:29.990Z,1018.05
2018-06-01T02:16:30.034Z,1018.04
2018-06-01T02:17:30.003Z,1018.07
2018-06-01T02:18:30.023Z,1018.06
2018-06-01T02:19:30.007Z,1018.09
2018-06-01T02:20:30.129Z,1018.11
2018-06-01T02:21:29.977Z,1018.09
2018-06-01T02:22:29.982Z,1018.13
2018-06-01T02:23:30.014Z,1018.1
2018-06-01T02:24:29.997Z,1018.11
2018-06-01T02:25:30.011Z,1018.1
2018-06-01T02:26:30.014Z,1018.12
2018-06-01T02:27:30.023Z,1018.1
2018-06-01T02:28:30.024Z,1018.1
2018-06-01T02:29:30.020Z,1018.1
2018-06-01T02:30:30.034Z,1018.09
2018-06-01T02:31:30.046Z,1018.08
2018-06-01T02:32:30.003Z,1018.1
2018-06-01T02:33:30.018Z,1018.12
2018-06-01T02:34:30.013Z,1018.12
2018-06-01T02:35:30.755Z,1018.11
2018-06-01T02:36:30.034Z,1018.1
2018-06-01T02:37:30.004Z,1018.07
2018-06-01T02:38:30.018Z,1018.13
2018-06-01T02:39:30.157Z,1018.11
2018-06-01T02:40:30.022Z,1018.1
2018-06-01T02:41:30.049Z,1018.06
2018-06-01T02:42:30.013Z,1018.09
2018-06-01T02:43:30.026Z,1018.01
2018-06-01T02:44:30.049Z,1018.02
2018-06-01T02:45:30.049Z,1018
2018-06-01T02:46:30.047Z,1018.02
2018-06-01T02:47:30.055Z,1018.02
2018-06-01T02:48:30.009Z,1017.97
2018-06-01T02:49:30.029Z,1017.94
2018-06-01T02:50:30.015Z,1017.94
2018-06-01T02:51:30.052Z,1017.98
2018-06-01T02:52:30.082Z,1017.95
2018-06-01T02:53:30.025Z,1017.99
2018-06-01T02:54:30.036Z,1017.94
2018-06-01T02:55:29.997Z,1018.02
2018-06-01T02:56:30.251Z,1018.01
2018-06-01T02:57:30.037Z,1018
2018-06-01T02:58:30.019Z,1018.03
2018-06-01T02:59:30.057Z,1018.04
2018-06-01T03:00:30.033Z,1018.04
2018-06-01T03:01:30.037Z,1018.09
2018-06-01T03:02:30.161Z,1018.1
2018-06-01T03:03:29.997Z,1018.14
2018-06-01T03:04:30.025Z,1018.16
2018-06-01T03:05:30.033Z,1018.19
2018-06-01T03:06:30.016Z,1018.19
2018-06-01T03:07:30.045Z,1018.21
2018-06-01T03:08:30.069Z,1018.23
2018-06-01T03:09:30.023Z,1018.26
2018-06-01T03:10:30.003Z,1018.25
2018-06-01T03:11:30.063Z,1018.25
2018-06-01T03:12:30.019Z,1018.28
2018-06-01T03:13:30.004Z,1018.28
2018-06-01T03:14:30.020Z,1018.31
2018-06-01T03:15:30.047Z,1018.31
2018-06-01T03:16:30.007Z,1018.33
2018-06-01T03:17:30.041Z,1018.36
2018-06-01T03:18:30.008Z,1018.41
2018-06-01T03:19:30.008Z,1018.41
2018-06-01T03:20:30.319Z,1018.41
2018-06-01T03:21:30.020Z,1018.48
2018-06-01T03:22:30.046Z,1018.49
2018-06-01T03:23:30.082Z,1018.51
2018-06-01T03:24:30.038Z,1018.47
2018-06-01T03:25:30.095Z,1018.53
2018-06-01T03:26:30.033Z,1018.52
2018-06-01T03:27:30.031Z,1018.57
2018-06-01T03:28:30.059Z,1018.57
2018-06-01T03:29:30.044Z,1018.55
2018-06-01T03:30:30.182Z,1018.54
2018-06-01T03:31:30.042Z,1018.6
2018-06-01T03:32:30.058Z,1018.56
2018-06-01T03:33:30.005Z,1018.6
2018-06-01T03:34:30.013Z,1018.63
2018-06-01T03:35:30.021Z,1018.67
2018-06-01T03:36:30.052Z,1018.66
2018-06-01T03:37:30.065Z,1018.66
2018-06-01T03:38:30.083Z,1018.67
2018-06-01T03:39:30.043Z,1018.68
2018-06-01T03:40:30.015Z,1018.72
2018-06-01T03:41:30.032Z,1018.72
2018-06-01T03:42:30.062Z,1018.79
2018-06-01T03:43:30.025Z,1018.82
2018-06-01T03:44:30.033Z,1018.78
2018-06-01T03:45:30.049Z,1018.79
2018-06-01T03:46:30.047Z,1018.84
2018-06-01T03:47:30.148Z,1018.8
2018-06-01T03:48:30.059Z,1018.81
2018-06-01T03:49:30.061Z,1018.83
2018-06-01T03:50:30.032Z,1018.82
2018-06-01T03:51:30.026Z,1018.83
2018-06-01T03:52:30.066Z,1018.85
2018-06-01T03:53:30.108Z,1018.88
2018-06-01T03:54:30.115Z,1018.92
2018-06-01T03:55:30.079Z,1018.87
2018-06-01T03:56:30.093Z,1018.88
2018-06-01T03:57:30.040Z,1018.92
2018-06-01T03:58:30.213Z,1018.9
2018-06-01T03:59:30.078Z,1018.89
2018-06-01T04:00:30.077Z,1018.9
2018-06-01T04:01:30.075Z,1018.92
2018-06-01T04:02:30.045Z,1018.92
2018-06-01T04:03:30.070Z,1018.93
2018-06-01T04:04:30.042Z,1018.91
2018-06-01T04:05:30.036Z,1018.91
2018-06-01T04:06:30.120Z,1018.93
2018-06-01T04:07:30.139Z,1018.95
2018-06-01T04:08:30.042Z,1018.98
2018-06-01T04:09:30.079Z,1018.99
2018-06-01T04:10:30.193Z,1019.01
2018-06-01T04:11:30.050Z,1018.98
2018-06-01T04:12:30.029Z,1018.98
2018-06-01T04:13:30.056Z,1018.98
2018-06-01T04:14:30.051Z,1018.99
2018-06-01T04:15:30.073Z,1018.99
2018-06-01T04:16:30.036Z,1018.99
2018-06-01T04:17:30.099Z,1018.98
2018-06-01T04:18:30.090Z,1019.02
2018-06-01T04:19:30.036Z,1019.03
2018-06-01T04:20:30.140Z,1019.05
2018-06-01T04:21:30.131Z,1019.1
2018-06-01T04:22:30.045Z,1019.06
2018-06-01T04:23:30.060Z,1019.06
2018-06-01T04:24:30.055Z,1019.07
2018-06-01T04:25:30.090Z,1019.08
2018-06-01T04:26:30.100Z,1019.11
2018-06-01T04:27:30.121Z,1019.07
2018-06-01T04:28:30.144Z,1019.13
2018-06-01T04:29:30.073Z,1019.16
2018-06-01T04:30:30.091Z,1019.13
2018-06-01T04:31:30.043Z,1019.19
2018-06-01T04:32:30.051Z,1019.21
2018-06-01T04:33:30.044Z,1019.2
2018-06-01T04:34:30.066Z,1019.24
2018-06-01T04:35:30.071Z,1019.26
2018-06-01T04:36:30.063Z,1019.28
2018-06-01T04:37:30.086Z,1019.3
2018-06-01T04:38:30.116Z,1019.3
2018-06-01T04:39:30.105Z,1019.36
2018-06-01T04:40:30.084Z,1019.4
2018-06-01T04:41:30.076Z,1019.4
2018-06-01T04:42:30.084Z,1019.38
2018-06-01T04:43:30.090Z,1019.41
2018-06-01T04:44:30.053Z,1019.44
2018-06-01T04:45:30.074Z,1019.47
2018-06-01T04:46:30.112Z,1019.46
2018-06-01T04:47:30.068Z,1019.51
2018-06-01T04:48:30.100Z,1019.49
2018-06-01T04:49:30.061Z,1019.53
2018-06-01T04:50:30.084Z,1019.55
2018-06-01T04:51:30.052Z,1019.59
2018-06-01T04:52:30.073Z,1019.61
2018-06-01T04:53:30.077Z,1019.61
2018-06-01T04:54:30.060Z,1019.63
2018-06-01T04:55:30.114Z,1019.64
2018-06-01T04:56:30.099Z,1019.68
2018-06-01T04:57:30.090Z,1019.68
2018-06-01T04:58:30.064Z,1019.68
2018-06-01T04:59:30.098Z,1019.65
2018-06-01T05:00:30.198Z,1019.68
2018-06-01T05:01:30.247Z,1019.69
2018-06-01T05:02:30.103Z,1019.68
2018-06-01T05:03:30.064Z,1019.67
2018-06-01T05:04:30.074Z,1019.77
2018-06-01T05:05:30.060Z,1019.69
2018-06-01T05:06:30.093Z,1019.74
2018-06-01T05:07:30.092Z,1019.74
2018-06-01T05:08:30.132Z,1019.77
2018-06-01T05:09:30.086Z,1019.77
2018-06-01T05:10:30.069Z,1019.77
2018-06-01T05:11:30.104Z,1019.75
2018-06-01T05:12:30.103Z,1019.78
2018-06-01T05:13:30.097Z,1019.79
2018-06-01T05:14:30.115Z,1019.79
2018-06-01T05:15:30.179Z,1019.79
2018-06-01T05:16:30.342Z,1019.8
2018-06-01T05:17:30.161Z,1019.8
2018-06-01T05:18:30.067Z,1019.78
2018-06-01T05:19:30.115Z,1019.78
2018-06-01T05:20:30.262Z,1019.76
2018-06-01T05:21:30.102Z,1019.79
2018-06-01T05:22:30.090Z,1019.8
2018-06-01T05:23:30.092Z,1019.81
2018-06-01T05:24:30.117Z,1019.82
2018-06-01T05:25:30.185Z,1019.84
2018-06-01T05:26:30.149Z,1019.83
2018-06-01T05:27:30.138Z,1019.87
2018-06-01T05:28:30.186Z,1019.87
2018-06-01T05:29:30.090Z,1019.85
2018-06-01T05:30:30.152Z,1019.88
2018-06-01T05:31:30.097Z,1019.87
2018-06-01T05:32:30.117Z,1019.89
2018-06-01T05:33:30.120Z,1019.87
2018-06-01T05:34:30.207Z,1019.85
2018-06-01T05:35:30.257Z,1019.82
2018-06-01T05:36:30.199Z,1019.81
2018-06-01T05:37:30.147Z,1019.82
2018-06-01T05:38:30.124Z,1019.79
2018-06-01T05:39:30.364Z,1019.81
2018-06-01T05:40:30.168Z,1019.82
2018-06-01T05:41:30.274Z,1019.85
2018-06-01T05:42:30.167Z,1019.81
2018-06-01T05:43:30.139Z,1019.82
2018-06-01T05:44:30.165Z,1019.84
2018-06-01T05:45:30.134Z,1019.8
2018-06-01T05:46:30.100Z,1019.85
2018-06-01T05:47:30.726Z,1019.85
2018-06-01T05:48:30.231Z,1019.84
2018-06-01T05:49:30.085Z,1019.86
2018-06-01T05:50:30.084Z,1019.85
2018-06-01T05:51:30.092Z,1019.86
2018-06-01T05:52:30.151Z,1019.86
2018-06-01T05:53:30.100Z,1019.88
2018-06-01T05:54:30.246Z,1019.88
2018-06-01T05:55:30.101Z,1019.9
2018-06-01T05:56:30.135Z,1019.89
2018-06-01T05:57:30.104Z,1019.94
2018-06-01T05:58:30.150Z,1019.95
2018-06-01T05:59:30.129Z,1019.92
2018-06-01T06:00:30.145Z,1019.95
2018-06-01T06:01:30.141Z,1019.92
2018-06-01T06:02:30.116Z,1019.92
2018-06-01T06:03:30.143Z,1019.92
2018-06-01T06:04:30.191Z,1019.89
2018-06-01T06:05:30.108Z,1019.93
2018-06-01T06:06:30.136Z,1019.89
2018-06-01T06:07:30.080Z,1019.93
2018-06-01T06:08:30.119Z,1019.92
2018-06-01T06:09:30.153Z,1019.94
2018-06-01T06:10:30.116Z,1019.9
2018-06-01T06:11:30.136Z,1019.93
2018-06-01T06:12:30.172Z,1019.92
2018-06-01T06:13:30.392Z,1019.93
2018-06-01T06:14:30.127Z,1019.93
2018-06-01T06:15:30.503Z,1019.94
2018-06-01T06:16:30.255Z,1019.96
2018-06-01T06:17:30.177Z,1019.96
2018-06-01T06:18:30.168Z,1020.02
2018-06-01T06:19:30.219Z,1020.06
2018-06-01T06:20:30.197Z,1020.05
2018-06-01T06:21:30.125Z,1020.05
2018-06-01T06:22:30.188Z,1020.06
2018-06-01T06:23:30.145Z,1020.07
2018-06-01T06:24:30.116Z,1020.06
2018-06-01T06:25:30.179Z,1020.06
2018-06-01T06:26:30.096Z,1020.02
2018-06-01T06:27:30.140Z,1020.06
2018-06-01T06:28:30.145Z,1020
2018-06-01T06:29:30.249Z,1019.99
2018-06-01T06:30:30.113Z,1020
2018-06-01T06:31:30.283Z,1020.04
2018-06-01T06:32:30.173Z,1020.01
2018-06-01T06:33:30.144Z,1020.01
2018-06-01T06:34:30.300Z,1019.95
2018-06-01T06:35:30.132Z,1019.99
2018-06-01T06:36:30.146Z,1019.96
2018-06-01T06:37:30.302Z,1019.99
2018-06-01T06:38:30.220Z,1019.98
2018-06-01T06:39:30.151Z,1020.03
2018-06-01T06:40:30.134Z,1019.97
2018-06-01T06:41:30.155Z,1020
2018-06-01T06:42:30.115Z,1020.04
2018-06-01T06:43:30.148Z,1020.08
2018-06-01T06:44:30.144Z,1020.06
2018-06-01T06:45:30.121Z,1020.05
2018-06-01T06:46:30.248Z,1020.06
2018-06-01T06:47:30.164Z,1020.03
2018-06-01T06:48:30.129Z,1020.03
2018-06-01T06:49:30.198Z,1020.06
2018-06-01T06:50:30.143Z,1020.04
2018-06-01T06:51:30.148Z,1020.03
2018-06-01T06:52:30.196Z,1020.03
2018-06-01T06:53:30.148Z,1020.06
2018-06-01T06:54:30.184Z,1020.05
2018-06-01T06:55:30.185Z,1020.04
2018-06-01T06:56:30.226Z,1020.04
2018-06-01T06:57:30.170Z,1020.05
2018-06-01T06:58:30.142Z,1020.15
2018-06-01T06:59:30.170Z,1020.11
2018-06-01T07:00:30.175Z,1020.1
2018-06-01T07:01:30.160Z,1020.11
2018-06-01T07:02:30.133Z,1020.14
2018-06-01T07:03:30.153Z,1020.14
2018-06-01T07:04:31.016Z,1020.17
2018-06-01T07:05:30.177Z,1020.16
2018-06-01T07:06:30.153Z,1020.18
2018-06-01T07:07:30.148Z,1020.22
2018-06-01T07:08:30.129Z,1020.17
2018-06-01T07:09:30.129Z,1020.22
2018-06-01T07:10:30.152Z,1020.2
2018-06-01T07:11:30.155Z,1020.24
2018-06-01T07:12:30.362Z,1020.24
2018-06-01T07:13:30.149Z,1020.2
2018-06-01T07:14:30.143Z,1020.22
2018-06-01T07:15:30.148Z,1020.22
2018-06-01T07:16:30.161Z,1020.22
2018-06-01T07:17:30.172Z,1020.26
2018-06-01T07:18:30.210Z,1020.2
2018-06-01T07:19:30.183Z,1020.22
2018-06-01T07:20:30.783Z,1020.21
2018-06-01T07:21:30.198Z,1020.23
2018-06-01T07:22:30.407Z,1020.23
2018-06-01T07:23:30.157Z,1020.21
2018-06-01T07:24:30.264Z,1020.2
2018-06-01T07:25:30.133Z,1020.24
2018-06-01T07:26:30.245Z,1020.23
2018-06-01T07:27:30.143Z,1020.26
2018-06-01T07:28:30.163Z,1020.23
2018-06-01T07:29:30.162Z,1020.26
2018-06-01T07:30:30.169Z,1020.29
2018-06-01T07:31:30.188Z,1020.28
2018-06-01T07:32:30.224Z,1020.28
2018-06-01T07:33:30.194Z,1020.29
2018-06-01T07:34:30.258Z,1020.31
2018-06-01T07:35:30.194Z,1020.24
2018-06-01T07:36:30.177Z,1020.23
2018-06-01T07:37:30.294Z,1020.23
2018-06-01T07:38:30.209Z,1020.27
2018-06-01T07:39:30.194Z,1020.23
2018-06-01T07:40:30.164Z,1020.24
2018-06-01T07:41:30.195Z,1020.25
2018-06-01T07:42:30.226Z,1020.21
2018-06-01T07:43:30.216Z,1020.23
2018-06-01T07:44:30.210Z,1020.15
2018-06-01T07:45:30.205Z,1020.2
2018-06-01T07:46:30.174Z,1020.19
2018-06-01T07:47:30.191Z,1020.13
2018-06-01T07:48:30.170Z,1020.16
2018-06-01T07:49:30.246Z,1020.12
2018-06-01T07:50:30.271Z,1020.16
2018-06-01T07:51:30.223Z,1020.14
2018-06-01T07:52:30.200Z,1020.14
2018-06-01T07:53:30.210Z,1020.14
2018-06-01T07:54:30.426Z,1020.14
2018-06-01T07:55:30.184Z,1020.12
2018-06-01T07:56:30.213Z,1020.17
2018-06-01T07:57:30.170Z,1020.15
2018-06-01T07:58:30.209Z,1020.09
2018-06-01T07:59:30.214Z,1020.08
2018-06-01T08:00:30.193Z,1020.08
2018-06-01T08:01:30.189Z,1020.08
2018-06-01T08:02:30.172Z,1020.04
2018-06-01T08:03:30.321Z,1020.11
2018-06-01T08:04:30.227Z,1020.05
2018-06-01T08:05:30.321Z,1020.08
2018-06-01T08:06:30.229Z,1020.1
2018-06-01T08:07:30.466Z,1020.12
2018-06-01T08:08:30.166Z,1020.12
2018-06-01T08:09:30.202Z,1020.12
2018-06-01T08:10:30.200Z,1020.11
2018-06-01T08:11:30.253Z,1020.11
2018-06-01T08:12:30.170Z,1020.11
2018-06-01T08:13:30.233Z,1020.14
2018-06-01T08:14:30.232Z,1020.14
2018-06-01T08:15:30.336Z,1020.15
2018-06-01T08:16:30.377Z,1020.17
2018-06-01T08:17:30.267Z,1020.18
2018-06-01T08:18:30.223Z,1020.21
2018-06-01T08:19:30.197Z,1020.22
2018-06-01T08:20:31.527Z,1020.21
2018-06-01T08:21:30.199Z,1020.19
2018-06-01T08:22:30.181Z,1020.21
2018-06-01T08:23:30.212Z,1020.27
2018-06-01T08:24:30.232Z,1020.26
2018-06-01T08:25:30.205Z,1020.28
2018-06-01T08:26:30.257Z,1020.29
2018-06-01T08:27:30.206Z,1020.24
2018-06-01T08:28:30.198Z,1020.21
2018-06-01T08:29:30.225Z,1020.29
2018-06-01T08:30:30.343Z,1020.29
2018-06-01T08:31:30.178Z,1020.27
2018-06-01T08:32:30.270Z,1020.28
2018-06-01T08:33:30.179Z,1020.27
2018-06-01T08:34:30.212Z,1020.33
2018-06-01T08:35:30.214Z,1020.27
2018-06-01T08:36:30.820Z,1020.3
2018-06-01T08:37:30.231Z,1020.32
2018-06-01T08:38:30.241Z,1020.33
2018-06-01T08:39:30.219Z,1020.3
2018-06-01T08:40:30.226Z,1020.27
2018-06-01T08:41:30.248Z,1020.3
2018-06-01T08:42:30.193Z,1020.3
2018-06-01T08:43:30.213Z,1020.3
2018-06-01T08:44:30.209Z,1020.3
2018-06-01T08:45:30.235Z,1020.34
2018-06-01T08:46:30.264Z,1020.36
2018-06-01T08:47:30.197Z,1020.33
2018-06-01T08:48:30.203Z,1020.38
2018-06-01T08:49:30.183Z,1020.35
2018-06-01T08:50:30.227Z,1020.32
2018-06-01T08:51:30.326Z,1020.33
2018-06-01T08:52:30.487Z,1020.32
2018-06-01T08:53:30.211Z,1020.37
2018-06-01T08:54:30.361Z,1020.36
2018-06-01T08:55:30.470Z,1020.31
2018-06-01T08:56:30.378Z,1020.32
2018-06-01T08:57:30.383Z,1020.31
2018-06-01T08:58:30.242Z,1020.3
2018-06-01T08:59:30.191Z,1020.34
2018-06-01T09:00:30.315Z,1020.32
2018-06-01T09:01:30.304Z,1020.33
2018-06-01T09:02:30.422Z,1020.34
2018-06-01T09:03:30.324Z,1020.34
2018-06-01T09:04:30.435Z,1020.38
2018-06-01T09:05:30.232Z,1020.37
2018-06-01T09:06:30.352Z,1020.37
2018-06-01T09:07:30.347Z,1020.38
2018-06-01T09:08:30.235Z,1020.37
2018-06-01T09:09:30.369Z,1020.37
2018-06-01T09:10:30.253Z,1020.39
2018-06-01T09:11:30.382Z,1020.41
2018-06-01T09:12:30.379Z,1020.44
2018-06-01T09:13:30.409Z,1020.39
2018-06-01T09:14:30.273Z,1020.46
2018-06-01T09:15:30.414Z,1020.4
2018-06-01T09:16:30.271Z,1020.42
2018-06-01T09:17:30.218Z,1020.43
2018-06-01T09:18:30.425Z,1020.42
2018-06-01T09:19:30.541Z,1020.42
2018-06-01T09:20:30.442Z,1020.43
2018-06-01T09:21:30.443Z,1020.41
2018-06-01T09:22:30.449Z,1020.38
2018-06-01T09:23:30.793Z,1020.36
2018-06-01T09:24:30.368Z,1020.4
2018-06-01T09:25:30.371Z,1020.4
2018-06-01T09:26:30.376Z,1020.4
2018-06-01T09:27:30.384Z,1020.41
2018-06-01T09:28:30.544Z,1020.41
2018-06-01T09:29:30.257Z,1020.36
2018-06-01T09:30:30.334Z,1020.4
2018-06-01T09:31:30.411Z,1020.44
2018-06-01T09:32:30.526Z,1020.39
2018-06-01T09:33:30.427Z,1020.42
2018-06-01T09:34:30.562Z,1020.43
2018-06-01T09:35:30.227Z,1020.39
2018-06-01T09:36:30.443Z,1020.43
2018-06-01T09:37:30.359Z,1020.43
2018-06-01T09:38:30.273Z,1020.45
2018-06-01T09:39:30.365Z,1020.47
2018-06-01T09:40:30.366Z,1020.44
2018-06-01T09:41:30.379Z,1020.46
2018-06-01T09:42:30.493Z,1020.45
2018-06-01T09:43:30.559Z,1020.39
2018-06-01T09:44:30.401Z,1020.45
2018-06-01T09:45:30.509Z,1020.45
2018-06-01T09:46:30.417Z,1020.44
2018-06-01T09:47:30.308Z,1020.4
2018-06-01T09:48:30.326Z,1020.46
2018-06-01T09:49:30.327Z,1020.46
2018-06-01T09:50:30.441Z,1020.47
2018-06-01T09:51:30.452Z,1020.5
2018-06-01T09:52:30.375Z,1020.49
2018-06-01T09:53:30.352Z,1020.48
2018-06-01T09:54:30.360Z,1020.51
2018-06-01T09:55:30.434Z,1020.51
2018-06-01T09:56:30.372Z,1020.55
2018-06-01T09:57:30.419Z,1020.49
2018-06-01T09:58:30.235Z,1020.52
2018-06-01T09:59:30.401Z,1020.52
2018-06-01T10:00:30.407Z,1020.51
2018-06-01T10:01:30.265Z,1020.49
2018-06-01T10:02:30.420Z,1020.48
2018-06-01T10:03:30.318Z,1020.47
2018-06-01T10:04:30.436Z,1020.46
2018-06-01T10:05:30.440Z,1020.46
2018-06-01T10:06:30.447Z,1020.47
2018-06-01T10:07:30.400Z,1020.47
2018-06-01T10:08:30.336Z,1020.48
2018-06-01T10:09:30.566Z,1020.44
2018-06-01T10:10:30.249Z,1020.44
2018-06-01T10:11:30.258Z,1020.42
2018-06-01T10:12:30.401Z,1020.42
2018-06-01T10:13:30.355Z,1020.43
2018-06-01T10:14:30.312Z,1020.35
2018-06-01T10:15:30.476Z,1020.42
2018-06-01T10:16:30.407Z,1020.35
2018-06-01T10:17:30.318Z,1020.39
2018-06-01T10:18:30.419Z,1020.39
2018-06-01T10:19:30.253Z,1020.33
2018-06-01T10:20:30.297Z,1020.3
2018-06-01T10:21:30.347Z,1020.31
2018-06-01T10:22:30.384Z,1020.29
2018-06-01T10:23:30.425Z,1020.26
2018-06-01T10:24:30.466Z,1020.3
2018-06-01T10:25:30.245Z,1020.35
2018-06-01T10:26:30.330Z,1020.34
2018-06-01T10:27:30.385Z,1020.29
2018-06-01T10:28:30.594Z,1020.29
2018-06-01T10:29:30.262Z,1020.3
2018-06-01T10:30:30.410Z,1020.3
2018-06-01T10:31:30.296Z,1020.32
2018-06-01T10:32:30.308Z,1020.31
2018-06-01T10:33:30.465Z,1020.24
2018-06-01T10:34:30.441Z,1020.27
2018-06-01T10:35:30.349Z,1020.23
2018-06-01T10:36:30.653Z,1020.19
2018-06-01T10:37:30.257Z,1020.21
2018-06-01T10:38:30.268Z,1020.17
2018-06-01T10:39:30.493Z,1020.19
2018-06-01T10:40:30.261Z,1020.22
2018-06-01T10:41:30.284Z,1020.19
2018-06-01T10:42:30.492Z,1020.22
2018-06-01T10:43:30.274Z,1020.21
2018-06-01T10:44:30.440Z,1020.21
2018-06-01T10:45:30.403Z,1020.18
2018-06-01T10:46:30.421Z,1020.16
2018-06-01T10:47:30.280Z,1020.09
2018-06-01T10:48:30.425Z,1020.13
2018-06-01T10:49:30.328Z,1020.09
2018-06-01T10:50:30.286Z,1020.07
2018-06-01T10:51:30.456Z,1020.08
2018-06-01T10:52:30.455Z,1020.09
2018-06-01T10:53:30.352Z,1020.04
2018-06-01T10:54:30.509Z,1020.08
2018-06-01T10:55:30.280Z,1020.09
2018-06-01T10:56:30.698Z,1020.04
2018-06-01T10:57:30.273Z,1020.08
2018-06-01T10:58:30.300Z,1020.03
2018-06-01T10:59:30.406Z,1020.02
2018-06-01T11:00:30.271Z,1019.97
2018-06-01T11:01:30.353Z,1019.97
2018-06-01T11:02:30.425Z,1019.97
2018-06-01T11:03:30.305Z,1019.96
2018-06-01T11:04:30.280Z,1019.96
2018-06-01T11:05:30.342Z,1019.98
2018-06-01T11:06:30.301Z,1019.96
2018-06-01T11:07:30.281Z,1019.96
2018-06-01T11:08:30.372Z,1019.97
2018-06-01T11:09:30.434Z,1019.94
2018-06-01T11:10:30.292Z,1019.98
2018-06-01T11:11:30.491Z,1019.94
2018-06-01T11:12:30.374Z,1019.97
2018-06-01T11:13:30.300Z,1019.92
2018-06-01T11:14:30.544Z,1019.91
2018-06-01T11:15:30.295Z,1019.89
2018-06-01T11:16:30.308Z,1019.89
2018-06-01T11:17:30.424Z,1019.9
2018-06-01T11:18:30.399Z,1019.88
2018-06-01T11:19:30.465Z,1019.91
2018-06-01T11:20:30.466Z,1019.94
2018-06-01T11:21:30.548Z,1019.89
2018-06-01T11:22:30.340Z,1019.93
2018-06-01T11:23:30.461Z,1019.93
2018-06-01T11:24:32.421Z,1019.89
2018-06-01T11:25:30.351Z,1019.84
2018-06-01T11:26:30.379Z,1019.86
2018-06-01T11:27:30.309Z,1019.83
2018-06-01T11:28:30.299Z,1019.83
2018-06-01T11:29:30.520Z,1019.85
2018-06-01T11:30:30.359Z,1019.85
2018-06-01T11:31:30.380Z,1019.88
2018-06-01T11:32:30.432Z,1019.86
2018-06-01T11:33:30.393Z,1019.84
2018-06-01T11:34:30.342Z,1019.79
2018-06-01T11:35:30.338Z,1019.84
2018-06-01T11:36:30.459Z,1019.85
2018-06-01T11:37:30.310Z,1019.86
2018-06-01T11:38:30.414Z,1019.83
2018-06-01T11:39:30.354Z,1019.76
2018-06-01T11:40:30.479Z,1019.74
2018-06-01T11:41:30.377Z,1019.68
2018-06-01T11:42:30.300Z,1019.69
2018-06-01T11:43:30.394Z,1019.7
2018-06-01T11:44:30.517Z,1019.7
2018-06-01T11:45:30.310Z,1019.7
2018-06-01T11:46:30.354Z,1019.66
2018-06-01T11:47:30.436Z,1019.68
2018-06-01T11:48:30.438Z,1019.6
2018-06-01T11:49:30.316Z,1019.63
2018-06-01T11:50:30.449Z,1019.58
2018-06-01T11:51:30.554Z,1019.61
2018-06-01T11:52:30.330Z,1019.58
2018-06-01T11:53:30.572Z,1019.53
2018-06-01T11:54:30.336Z,1019.5
2018-06-01T11:55:31.283Z,1019.44
2018-06-01T11:56:30.585Z,1019.48
2018-06-01T11:57:30.506Z,1019.49
2018-06-01T11:58:30.357Z,1019.45
2018-06-01T11:59:30.506Z,1019.51
2018-06-01T12:00:30.337Z,1019.5
2018-06-01T12:01:30.332Z,1019.46
2018-06-01T12:02:30.331Z,1019.41
2018-06-01T12:03:30.544Z,1019.42
2018-06-01T12:04:30.325Z,1019.35
2018-06-01T12:05:30.550Z,1019.32
2018-06-01T12:06:30.317Z,1019.37
2018-06-01T12:07:30.420Z,1019.35
2018-06-01T12:08:30.462Z,1019.36